Roan Cliffs, Utah
Current Conditions -  °F | °C
As of 10:53 PM on Thursday 30 Oct 2014 (Local Time) from KPUC Reporting Station
Clear Clear  
Wind Chill: 40°   Ceiling: Unl
Heat Index: 45°   Visibility: 10mi
Dew Point: 18°   Wind: 9mph
Humidity: 34%   Direction: 10°N
Pressure: 30.26"   Gusts: NA
Location:  39.63°N, 110.33°W
Report Text: KPUC 310453Z AUTO 01008KT 10SM CLR 07/M08 A3026 RMK AO2 SLP232 T00721078 TSNO
Loading
Personal Weather Stations






























Interactive Weather Map
Tropical Storm Tracking
New forecast layout! Learn more

10-Day Weather Forecast

Advertisements
Track Severe Weather on mobile